sensor_id;sensor_type;location;lat;lon;timestamp;temperature;humidity
46720;DHT22;32452;51.382;-0.002;2023-04-12T00:01:54;8.80;99.90
46720;DHT22;32452;51.382;-0.002;2023-04-12T00:04:40;8.80;99.90
46720;DHT22;32452;51.382;-0.002;2023-04-12T00:07:27;8.80;99.90
46720;DHT22;32452;51.382;-0.002;2023-04-12T00:10:14;8.80;99.90
46720;DHT22;32452;51.382;-0.002;2023-04-12T00:13:00;8.80;99.90
46720;DHT22;32452;51.382;-0.002;2023-04-12T00:15:46;8.70;99.90
46720;DHT22;32452;51.382;-0.002;2023-04-12T00:18:31;8.80;99.90
46720;DHT22;32452;51.382;-0.002;2023-04-12T00:21:17;8.70;99.90
46720;DHT22;32452;51.382;-0.002;2023-04-12T00:24:04;8.70;99.90
46720;DHT22;32452;51.382;-0.002;2023-04-12T00:26:49;8.70;99.90
46720;DHT22;32452;51.382;-0.002;2023-04-12T00:29:35;8.70;99.90
46720;DHT22;32452;51.382;-0.002;2023-04-12T00:32:21;8.60;99.90
46720;DHT22;32452;51.382;-0.002;2023-04-12T00:35:06;8.70;99.90
46720;DHT22;32452;51.382;-0.002;2023-04-12T00:37:52;8.60;99.90
46720;DHT22;32452;51.382;-0.002;2023-04-12T00:40:42;8.60;99.90
46720;DHT22;32452;51.382;-0.002;2023-04-12T00:43:27;8.60;99.90
46720;DHT22;32452;51.382;-0.002;2023-04-12T00:46:14;8.60;99.90
46720;DHT22;32452;51.382;-0.002;2023-04-12T00:49:01;8.60;99.90
46720;DHT22;32452;51.382;-0.002;2023-04-12T00:51:47;8.60;99.90
46720;DHT22;32452;51.382;-0.002;2023-04-12T00:54:33;8.60;99.90
46720;DHT22;32452;51.382;-0.002;2023-04-12T00:57:19;8.60;99.90
46720;DHT22;32452;51.382;-0.002;2023-04-12T01:00:08;8.50;99.90
46720;DHT22;32452;51.382;-0.002;2023-04-12T01:02:56;8.50;99.90
46720;DHT22;32452;51.382;-0.002;2023-04-12T01:11:28;8.40;99.90
46720;DHT22;32452;51.382;-0.002;2023-04-12T01:14:26;8.40;99.90
46720;DHT22;32452;51.382;-0.002;2023-04-12T01:17:19;8.40;99.90
46720;DHT22;32452;51.382;-0.002;2023-04-12T01:20:10;8.40;99.90
46720;DHT22;32452;51.382;-0.002;2023-04-12T01:23:25;8.40;99.90
46720;DHT22;32452;51.382;-0.002;2023-04-12T01:26:35;8.40;99.90
46720;DHT22;32452;51.382;-0.002;2023-04-12T01:29:23;8.40;99.90
46720;DHT22;32452;51.382;-0.002;2023-04-12T01:32:11;8.40;99.90
46720;DHT22;32452;51.382;-0.002;2023-04-12T01:34:57;8.40;99.90
46720;DHT22;32452;51.382;-0.002;2023-04-12T01:37:45;8.40;99.90
46720;DHT22;32452;51.382;-0.002;2023-04-12T01:40:31;8.40;99.90
46720;DHT22;32452;51.382;-0.002;2023-04-12T01:43:17;8.40;99.90
46720;DHT22;32452;51.382;-0.002;2023-04-12T01:46:02;8.40;99.90
46720;DHT22;32452;51.382;-0.002;2023-04-12T01:48:50;8.40;99.90
46720;DHT22;32452;51.382;-0.002;2023-04-12T01:54:38;8.40;99.90
46720;DHT22;32452;51.382;-0.002;2023-04-12T01:57:26;8.40;99.90
46720;DHT22;32452;51.382;-0.002;2023-04-12T02:00:11;8.40;99.90
46720;DHT22;32452;51.382;-0.002;2023-04-12T02:02:58;8.40;99.90
46720;DHT22;32452;51.382;-0.002;2023-04-12T02:05:45;8.40;99.90
46720;DHT22;32452;51.382;-0.002;2023-04-12T02:08:30;8.40;99.90
46720;DHT22;32452;51.382;-0.002;2023-04-12T02:11:16;8.40;99.90
46720;DHT22;32452;51.382;-0.002;2023-04-12T02:14:01;8.40;99.90
46720;DHT22;32452;51.382;-0.002;2023-04-12T02:16:47;8.40;99.90
46720;DHT22;32452;51.382;-0.002;2023-04-12T02:19:34;8.30;99.90
46720;DHT22;32452;51.382;-0.002;2023-04-12T02:22:20;8.30;99.90
46720;DHT22;32452;51.382;-0.002;2023-04-12T02:25:05;8.30;99.90
46720;DHT22;32452;51.382;-0.002;2023-04-12T02:27:51;8.30;99.90
46720;DHT22;32452;51.382;-0.002;2023-04-12T02:30:37;8.30;99.90
46720;DHT22;32452;51.382;-0.002;2023-04-12T02:33:22;8.30;99.90
46720;DHT22;32452;51.382;-0.002;2023-04-12T02:36:12;8.20;99.90
46720;DHT22;32452;51.382;-0.002;2023-04-12T02:38:57;8.20;99.90
46720;DHT22;32452;51.382;-0.002;2023-04-12T02:41:43;8.20;99.90
46720;DHT22;32452;51.382;-0.002;2023-04-12T02:44:30;8.20;99.90
46720;DHT22;32452;51.382;-0.002;2023-04-12T02:47:16;8.20;99.90
46720;DHT22;32452;51.382;-0.002;2023-04-12T02:50:02;8.20;99.90
46720;DHT22;32452;51.382;-0.002;2023-04-12T02:52:47;8.10;99.90
46720;DHT22;32452;51.382;-0.002;2023-04-12T02:55:33;8.10;99.90
46720;DHT22;32452;51.382;-0.002;2023-04-12T02:58:20;8.10;99.90
46720;DHT22;32452;51.382;-0.002;2023-04-12T03:01:06;8.10;99.90
46720;DHT22;32452;51.382;-0.002;2023-04-12T03:03:52;8.10;99.90
46720;DHT22;32452;51.382;-0.002;2023-04-12T03:06:37;8.00;99.90
46720;DHT22;32452;51.382;-0.002;2023-04-12T03:09:36;8.00;99.90
46720;DHT22;32452;51.382;-0.002;2023-04-12T03:12:22;8.00;99.90
46720;DHT22;32452;51.382;-0.002;2023-04-12T03:15:08;7.90;99.90
46720;DHT22;32452;51.382;-0.002;2023-04-12T03:17:54;7.90;99.90
46720;DHT22;32452;51.382;-0.002;2023-04-12T03:20:40;7.80;99.90
46720;DHT22;32452;51.382;-0.002;2023-04-12T03:23:31;7.80;99.90
46720;DHT22;32452;51.382;-0.002;2023-04-12T03:26:16;7.70;99.90
46720;DHT22;32452;51.382;-0.002;2023-04-12T03:29:05;7.60;99.90
46720;DHT22;32452;51.382;-0.002;2023-04-12T03:31:55;7.60;99.90
46720;DHT22;32452;51.382;-0.002;2023-04-12T03:34:42;7.60;99.90
46720;DHT22;32452;51.382;-0.002;2023-04-12T03:37:27;7.50;99.90
46720;DHT22;32452;51.382;-0.002;2023-04-12T03:40:13;7.40;99.90
46720;DHT22;32452;51.382;-0.002;2023-04-12T03:42:59;7.40;99.90
46720;DHT22;32452;51.382;-0.002;2023-04-12T03:45:46;7.40;99.90
46720;DHT22;32452;51.382;-0.002;2023-04-12T03:48:32;7.30;99.90
46720;DHT22;32452;51.382;-0.002;2023-04-12T03:51:18;7.30;99.90
46720;DHT22;32452;51.382;-0.002;2023-04-12T03:54:06;7.20;99.90
46720;DHT22;32452;51.382;-0.002;2023-04-12T03:56:51;7.20;99.90
46720;DHT22;32452;51.382;-0.002;2023-04-12T03:59:37;7.20;99.90
46720;DHT22;32452;51.382;-0.002;2023-04-12T04:02:22;7.20;99.90
46720;DHT22;32452;51.382;-0.002;2023-04-12T04:05:08;7.20;99.90
46720;DHT22;32452;51.382;-0.002;2023-04-12T04:07:57;7.10;99.90
46720;DHT22;32452;51.382;-0.002;2023-04-12T04:10:47;7.10;99.90
46720;DHT22;32452;51.382;-0.002;2023-04-12T04:13:32;7.10;99.90
46720;DHT22;32452;51.382;-0.002;2023-04-12T04:16:18;7.00;99.90
46720;DHT22;32452;51.382;-0.002;2023-04-12T04:19:03;7.00;99.90
46720;DHT22;32452;51.382;-0.002;2023-04-12T04:21:49;7.00;99.90
46720;DHT22;32452;51.382;-0.002;2023-04-12T04:24:35;6.90;99.90
46720;DHT22;32452;51.382;-0.002;2023-04-12T04:27:23;6.90;99.90
46720;DHT22;32452;51.382;-0.002;2023-04-12T04:30:09;6.80;99.90
46720;DHT22;32452;51.382;-0.002;2023-04-12T04:32:56;6.80;99.90
46720;DHT22;32452;51.382;-0.002;2023-04-12T04:35:42;6.80;99.90
46720;DHT22;32452;51.382;-0.002;2023-04-12T04:38:28;6.80;99.90
46720;DHT22;32452;51.382;-0.002;2023-04-12T04:41:16;6.70;99.90
46720;DHT22;32452;51.382;-0.002;2023-04-12T04:44:07;6.70;99.90
46720;DHT22;32452;51.382;-0.002;2023-04-12T04:46:55;6.70;99.90
46720;DHT22;32452;51.382;-0.002;2023-04-12T04:49:43;6.60;99.90
46720;DHT22;32452;51.382;-0.002;2023-04-12T04:52:29;6.60;99.90
46720;DHT22;32452;51.382;-0.002;2023-04-12T04:55:14;6.60;99.90
46720;DHT22;32452;51.382;-0.002;2023-04-12T04:58:01;6.50;99.90
46720;DHT22;32452;51.382;-0.002;2023-04-12T05:00:47;6.50;99.90
46720;DHT22;32452;51.382;-0.002;2023-04-12T05:03:33;6.40;99.90
46720;DHT22;32452;51.382;-0.002;2023-04-12T05:06:18;6.40;99.90
46720;DHT22;32452;51.382;-0.002;2023-04-12T05:09:04;6.40;99.90
46720;DHT22;32452;51.382;-0.002;2023-04-12T05:11:49;6.40;99.90
46720;DHT22;32452;51.382;-0.002;2023-04-12T05:14:35;6.30;99.90
46720;DHT22;32452;51.382;-0.002;2023-04-12T05:17:33;6.30;99.90
46720;DHT22;32452;51.382;-0.002;2023-04-12T05:20:19;6.30;99.90
46720;DHT22;32452;51.382;-0.002;2023-04-12T05:23:04;6.30;99.90
46720;DHT22;32452;51.382;-0.002;2023-04-12T05:25:50;6.20;99.90
46720;DHT22;32452;51.382;-0.002;2023-04-12T05:28:35;6.30;99.90
46720;DHT22;32452;51.382;-0.002;2023-04-12T05:31:21;6.20;99.90
46720;DHT22;32452;51.382;-0.002;2023-04-12T05:34:07;6.20;99.90
46720;DHT22;32452;51.382;-0.002;2023-04-12T05:36:53;6.20;99.90
46720;DHT22;32452;51.382;-0.002;2023-04-12T05:39:39;6.20;99.90
46720;DHT22;32452;51.382;-0.002;2023-04-12T05:42:24;6.20;99.90
46720;DHT22;32452;51.382;-0.002;2023-04-12T05:45:10;6.20;99.90
46720;DHT22;32452;51.382;-0.002;2023-04-12T05:47:56;6.30;99.90
46720;DHT22;32452;51.382;-0.002;2023-04-12T05:50:52;6.30;99.90
46720;DHT22;32452;51.382;-0.002;2023-04-12T05:53:38;6.40;99.90
46720;DHT22;32452;51.382;-0.002;2023-04-12T05:56:24;6.40;99.90
46720;DHT22;32452;51.382;-0.002;2023-04-12T05:59:09;6.50;99.90
46720;DHT22;32452;51.382;-0.002;2023-04-12T06:01:56;6.60;99.90
46720;DHT22;32452;51.382;-0.002;2023-04-12T06:04:42;6.70;99.90
46720;DHT22;32452;51.382;-0.002;2023-04-12T06:07:37;6.80;99.90
46720;DHT22;32452;51.382;-0.002;2023-04-12T06:10:23;6.90;99.90
46720;DHT22;32452;51.382;-0.002;2023-04-12T06:13:09;7.00;99.90
46720;DHT22;32452;51.382;-0.002;2023-04-12T06:15:55;7.10;99.90
46720;DHT22;32452;51.382;-0.002;2023-04-12T06:18:40;7.20;99.90
46720;DHT22;32452;51.382;-0.002;2023-04-12T06:21:26;7.30;99.90
46720;DHT22;32452;51.382;-0.002;2023-04-12T06:24:11;7.40;99.90
46720;DHT22;32452;51.382;-0.002;2023-04-12T06:26:57;7.50;99.90
46720;DHT22;32452;51.382;-0.002;2023-04-12T06:29:42;7.60;99.70
46720;DHT22;32452;51.382;-0.002;2023-04-12T06:32:28;7.70;99.40
46720;DHT22;32452;51.382;-0.002;2023-04-12T06:35:13;7.70;99.20
46720;DHT22;32452;51.382;-0.002;2023-04-12T06:37:59;7.70;99.00
46720;DHT22;32452;51.382;-0.002;2023-04-12T06:40:46;7.70;98.90
46720;DHT22;32452;51.382;-0.002;2023-04-12T06:43:32;7.80;98.80
46720;DHT22;32452;51.382;-0.002;2023-04-12T06:46:25;8.00;98.80
46720;DHT22;32452;51.382;-0.002;2023-04-12T06:49:11;8.30;98.20
46720;DHT22;32452;51.382;-0.002;2023-04-12T06:51:56;8.40;97.30
46720;DHT22;32452;51.382;-0.002;2023-04-12T06:54:42;8.60;96.80
46720;DHT22;32452;51.382;-0.002;2023-04-12T06:57:28;8.60;96.30
46720;DHT22;32452;51.382;-0.002;2023-04-12T07:00:14;8.50;95.80
46720;DHT22;32452;51.382;-0.002;2023-04-12T07:02:59;8.40;95.80
46720;DHT22;32452;51.382;-0.002;2023-04-12T07:05:45;8.40;96.00
46720;DHT22;32452;51.382;-0.002;2023-04-12T07:08:33;8.50;95.70
46720;DHT22;32452;51.382;-0.002;2023-04-12T07:11:20;8.50;95.60
46720;DHT22;32452;51.382;-0.002;2023-04-12T07:14:07;8.70;96.00
46720;DHT22;32452;51.382;-0.002;2023-04-12T07:16:52;9.40;95.10
46720;DHT22;32452;51.382;-0.002;2023-04-12T07:19:39;10.00;94.10
46720;DHT22;32452;51.382;-0.002;2023-04-12T07:22:26;10.50;93.30
46720;DHT22;32452;51.382;-0.002;2023-04-12T07:25:12;10.90;91.80
46720;DHT22;32452;51.382;-0.002;2023-04-12T07:27:57;11.00;90.10
46720;DHT22;32452;51.382;-0.002;2023-04-12T07:30:43;10.70;89.50
46720;DHT22;32452;51.382;-0.002;2023-04-12T07:33:29;10.90;90.10
46720;DHT22;32452;51.382;-0.002;2023-04-12T07:36:16;11.50;87.20
46720;DHT22;32452;51.382;-0.002;2023-04-12T07:39:05;11.50;85.10
46720;DHT22;32452;51.382;-0.002;2023-04-12T07:41:56;11.30;85.00
46720;DHT22;32452;51.382;-0.002;2023-04-12T07:44:42;11.20;84.50
46720;DHT22;32452;51.382;-0.002;2023-04-12T07:47:28;11.30;85.00
46720;DHT22;32452;51.382;-0.002;2023-04-12T07:50:13;12.00;82.90
46720;DHT22;32452;51.382;-0.002;2023-04-12T07:53:22;12.90;81.60
46720;DHT22;32452;51.382;-0.002;2023-04-12T07:56:07;13.40;77.50
46720;DHT22;32452;51.382;-0.002;2023-04-12T07:58:53;13.70;75.60
46720;DHT22;32452;51.382;-0.002;2023-04-12T08:01:45;14.20;74.90
46720;DHT22;32452;51.382;-0.002;2023-04-12T08:04:34;14.90;73.00
46720;DHT22;32452;51.382;-0.002;2023-04-12T08:07:21;15.50;70.10
46720;DHT22;32452;51.382;-0.002;2023-04-12T08:10:07;15.90;68.20
46720;DHT22;32452;51.382;-0.002;2023-04-12T08:12:53;16.40;65.90
46720;DHT22;32452;51.382;-0.002;2023-04-12T08:15:38;16.70;64.00
46720;DHT22;32452;51.382;-0.002;2023-04-12T08:18:24;16.80;62.10
46720;DHT22;32452;51.382;-0.002;2023-04-12T08:21:10;16.90;60.00
46720;DHT22;32452;51.382;-0.002;2023-04-12T08:23:59;16.90;59.10
46720;DHT22;32452;51.382;-0.002;2023-04-12T08:26:45;16.80;58.40
46720;DHT22;32452;51.382;-0.002;2023-04-12T08:29:32;16.70;57.60
46720;DHT22;32452;51.382;-0.002;2023-04-12T08:32:19;16.70;57.50
46720;DHT22;32452;51.382;-0.002;2023-04-12T08:35:07;16.80;57.20
46720;DHT22;32452;51.382;-0.002;2023-04-12T08:37:54;16.90;56.50
46720;DHT22;32452;51.382;-0.002;2023-04-12T08:40:41;17.10;57.10
46720;DHT22;32452;51.382;-0.002;2023-04-12T08:43:27;17.40;56.70
46720;DHT22;32452;51.382;-0.002;2023-04-12T08:46:14;17.50;56.30
46720;DHT22;32452;51.382;-0.002;2023-04-12T08:49:00;17.50;55.80
46720;DHT22;32452;51.382;-0.002;2023-04-12T08:51:46;17.30;55.00
46720;DHT22;32452;51.382;-0.002;2023-04-12T08:54:35;16.90;55.30
46720;DHT22;32452;51.382;-0.002;2023-04-12T08:57:21;16.40;55.10
46720;DHT22;32452;51.382;-0.002;2023-04-12T09:00:07;15.80;55.40
46720;DHT22;32452;51.382;-0.002;2023-04-12T09:02:54;15.00;57.00
46720;DHT22;32452;51.382;-0.002;2023-04-12T09:05:40;14.10;59.40
46720;DHT22;32452;51.382;-0.002;2023-04-12T09:08:26;13.20;62.70
46720;DHT22;32452;51.382;-0.002;2023-04-12T09:11:28;12.40;65.70
46720;DHT22;32452;51.382;-0.002;2023-04-12T09:14:24;11.70;67.80
46720;DHT22;32452;51.382;-0.002;2023-04-12T09:17:27;11.40;70.60
46720;DHT22;32452;51.382;-0.002;2023-04-12T09:23:22;12.90;70.90
46720;DHT22;32452;51.382;-0.002;2023-04-12T09:26:26;13.90;70.90
46720;DHT22;32452;51.382;-0.002;2023-04-12T09:29:24;14.70;68.60
46720;DHT22;32452;51.382;-0.002;2023-04-12T09:32:10;15.30;66.30
46720;DHT22;32452;51.382;-0.002;2023-04-12T09:34:58;15.70;64.80
46720;DHT22;32452;51.382;-0.002;2023-04-12T09:37:56;16.10;62.90
46720;DHT22;32452;51.382;-0.002;2023-04-12T09:40:42;16.50;59.70
46720;DHT22;32452;51.382;-0.002;2023-04-12T09:43:37;16.60;59.80
46720;DHT22;32452;51.382;-0.002;2023-04-12T09:46:23;16.80;58.70
46720;DHT22;32452;51.382;-0.002;2023-04-12T09:49:11;16.90;58.20
46720;DHT22;32452;51.382;-0.002;2023-04-12T09:51:57;17.10;58.20
46720;DHT22;32452;51.382;-0.002;2023-04-12T09:54:45;17.30;56.50
46720;DHT22;32452;51.382;-0.002;2023-04-12T09:57:33;17.30;55.70
46720;DHT22;32452;51.382;-0.002;2023-04-12T10:00:24;17.50;54.50
46720;DHT22;32452;51.382;-0.002;2023-04-12T10:03:11;17.50;53.80
46720;DHT22;32452;51.382;-0.002;2023-04-12T10:05:57;17.30;52.60
46720;DHT22;32452;51.382;-0.002;2023-04-12T10:08:44;17.10;52.20
46720;DHT22;32452;51.382;-0.002;2023-04-12T10:11:31;17.20;51.90
46720;DHT22;32452;51.382;-0.002;2023-04-12T10:14:20;17.40;50.40
46720;DHT22;32452;51.382;-0.002;2023-04-12T10:17:08;17.40;49.50
46720;DHT22;32452;51.382;-0.002;2023-04-12T10:19:55;17.50;48.30
46720;DHT22;32452;51.382;-0.002;2023-04-12T10:22:45;17.50;48.30
46720;DHT22;32452;51.382;-0.002;2023-04-12T10:25:31;17.30;47.10
46720;DHT22;32452;51.382;-0.002;2023-04-12T10:28:19;16.90;46.10
46720;DHT22;32452;51.382;-0.002;2023-04-12T10:31:31;16.60;47.30
46720;DHT22;32452;51.382;-0.002;2023-04-12T10:34:25;16.60;46.50
46720;DHT22;32452;51.382;-0.002;2023-04-12T10:37:15;16.40;46.40
46720;DHT22;32452;51.382;-0.002;2023-04-12T10:40:02;16.00;46.90
46720;DHT22;32452;51.382;-0.002;2023-04-12T10:42:48;15.60;45.50
46720;DHT22;32452;51.382;-0.002;2023-04-12T10:45:53;15.60;46.00
46720;DHT22;32452;51.382;-0.002;2023-04-12T10:48:51;16.00;47.50
46720;DHT22;32452;51.382;-0.002;2023-04-12T10:54:54;17.10;44.70
46720;DHT22;32452;51.382;-0.002;2023-04-12T10:57:42;17.20;43.50
46720;DHT22;32452;51.382;-0.002;2023-04-12T11:01:09;17.20;42.30
46720;DHT22;32452;51.382;-0.002;2023-04-12T11:07:00;17.40;44.20
46720;DHT22;32452;51.382;-0.002;2023-04-12T11:09:56;17.40;43.50
46720;DHT22;32452;51.382;-0.002;2023-04-12T11:12:49;17.20;43.20
46720;DHT22;32452;51.382;-0.002;2023-04-12T11:15:40;17.20;43.70
46720;DHT22;32452;51.382;-0.002;2023-04-12T11:18:37;17.30;43.00
46720;DHT22;32452;51.382;-0.002;2023-04-12T11:21:23;17.40;42.80
46720;DHT22;32452;51.382;-0.002;2023-04-12T11:24:10;17.40;39.30
46720;DHT22;32452;51.382;-0.002;2023-04-12T11:26:57;17.30;40.40
46720;DHT22;32452;51.382;-0.002;2023-04-12T11:29:44;17.10;40.90
46720;DHT22;32452;51.382;-0.002;2023-04-12T11:32:32;16.80;41.40
46720;DHT22;32452;51.382;-0.002;2023-04-12T11:35:19;16.40;42.40
46720;DHT22;32452;51.382;-0.002;2023-04-12T11:38:12;16.20;43.50
46720;DHT22;32452;51.382;-0.002;2023-04-12T11:40:58;16.00;43.20
46720;DHT22;32452;51.382;-0.002;2023-04-12T11:43:44;15.40;44.80
46720;DHT22;32452;51.382;-0.002;2023-04-12T11:46:32;15.00;47.10
46720;DHT22;32452;51.382;-0.002;2023-04-12T11:49:21;15.00;48.40
46720;DHT22;32452;51.382;-0.002;2023-04-12T11:52:07;15.20;49.00
46720;DHT22;32452;51.382;-0.002;2023-04-12T11:54:53;15.60;49.00
46720;DHT22;32452;51.382;-0.002;2023-04-12T11:57:52;16.10;48.50
46720;DHT22;32452;51.382;-0.002;2023-04-12T12:00:42;16.60;46.10
46720;DHT22;32452;51.382;-0.002;2023-04-12T12:03:28;16.70;46.10
46720;DHT22;32452;51.382;-0.002;2023-04-12T12:06:14;16.80;46.30
46720;DHT22;32452;51.382;-0.002;2023-04-12T12:09:01;16.70;46.20
46720;DHT22;32452;51.382;-0.002;2023-04-12T12:11:48;16.50;46.30
46720;DHT22;32452;51.382;-0.002;2023-04-12T12:14:36;16.30;47.30
46720;DHT22;32452;51.382;-0.002;2023-04-12T12:17:22;16.20;47.70
46720;DHT22;32452;51.382;-0.002;2023-04-12T12:20:18;15.80;47.70
46720;DHT22;32452;51.382;-0.002;2023-04-12T12:23:04;15.00;50.80
46720;DHT22;32452;51.382;-0.002;2023-04-12T12:25:50;14.20;55.10
46720;DHT22;32452;51.382;-0.002;2023-04-12T12:28:52;13.10;62.10
46720;DHT22;32452;51.382;-0.002;2023-04-12T12:31:45;12.10;67.30
46720;DHT22;32452;51.382;-0.002;2023-04-12T12:34:32;11.20;71.40
46720;DHT22;32452;51.382;-0.002;2023-04-12T12:37:23;10.60;73.90
46720;DHT22;32452;51.382;-0.002;2023-04-12T12:40:10;10.60;77.80
46720;DHT22;32452;51.382;-0.002;2023-04-12T12:43:03;11.00;80.30
46720;DHT22;32452;51.382;-0.002;2023-04-12T12:45:57;11.50;80.80
46720;DHT22;32452;51.382;-0.002;2023-04-12T12:48:45;11.90;78.30
46720;DHT22;32452;51.382;-0.002;2023-04-12T12:51:31;12.20;78.00
46720;DHT22;32452;51.382;-0.002;2023-04-12T12:54:16;12.40;76.00
46720;DHT22;32452;51.382;-0.002;2023-04-12T12:57:25;12.50;74.20
46720;DHT22;32452;51.382;-0.002;2023-04-12T13:00:12;12.70;72.10
46720;DHT22;32452;51.382;-0.002;2023-04-12T13:03:00;12.80;70.70
46720;DHT22;32452;51.382;-0.002;2023-04-12T13:05:47;13.00;68.00
46720;DHT22;32452;51.382;-0.002;2023-04-12T13:08:34;13.00;66.20
46720;DHT22;32452;51.382;-0.002;2023-04-12T13:11:24;13.00;63.80
46720;DHT22;32452;51.382;-0.002;2023-04-12T13:14:10;12.80;63.70
46720;DHT22;32452;51.382;-0.002;2023-04-12T13:17:03;12.60;63.40
46720;DHT22;32452;51.382;-0.002;2023-04-12T13:19:57;12.40;64.10
46720;DHT22;32452;51.382;-0.002;2023-04-12T13:25:41;12.30;63.90
46720;DHT22;32452;51.382;-0.002;2023-04-12T13:28:28;12.40;63.40
46720;DHT22;32452;51.382;-0.002;2023-04-12T13:31:13;12.40;62.80
46720;DHT22;32452;51.382;-0.002;2023-04-12T13:33:59;12.30;62.70
46720;DHT22;32452;51.382;-0.002;2023-04-12T13:36:51;12.10;62.50
46720;DHT22;32452;51.382;-0.002;2023-04-12T13:39:38;11.90;66.30
46720;DHT22;32452;51.382;-0.002;2023-04-12T13:42:25;11.40;70.40
46720;DHT22;32452;51.382;-0.002;2023-04-12T13:45:14;10.90;72.90
46720;DHT22;32452;51.382;-0.002;2023-04-12T13:48:00;10.60;76.40
46720;DHT22;32452;51.382;-0.002;2023-04-12T13:50:47;10.40;78.40
46720;DHT22;32452;51.382;-0.002;2023-04-12T13:53:35;10.30;79.40
46720;DHT22;32452;51.382;-0.002;2023-04-12T13:56:21;10.20;81.30
46720;DHT22;32452;51.382;-0.002;2023-04-12T13:59:06;10.20;82.80
46720;DHT22;32452;51.382;-0.002;2023-04-12T14:01:53;10.20;83.20
46720;DHT22;32452;51.382;-0.002;2023-04-12T14:04:49;10.10;85.20
46720;DHT22;32452;51.382;-0.002;2023-04-12T14:07:36;9.90;86.60
46720;DHT22;32452;51.382;-0.002;2023-04-12T14:10:22;9.60;87.80
46720;DHT22;32452;51.382;-0.002;2023-04-12T14:13:07;9.30;89.20
46720;DHT22;32452;51.382;-0.002;2023-04-12T14:15:53;9.20;90.30
46720;DHT22;32452;51.382;-0.002;2023-04-12T14:18:40;9.10;90.60
46720;DHT22;32452;51.382;-0.002;2023-04-12T14:21:26;9.00;90.80
46720;DHT22;32452;51.382;-0.002;2023-04-12T14:24:14;8.90;91.10
46720;DHT22;32452;51.382;-0.002;2023-04-12T14:27:00;8.90;91.20
46720;DHT22;32452;51.382;-0.002;2023-04-12T14:29:46;8.90;91.80
46720;DHT22;32452;51.382;-0.002;2023-04-12T14:32:33;9.00;91.50
46720;DHT22;32452;51.382;-0.002;2023-04-12T14:35:18;9.00;91.50
46720;DHT22;32452;51.382;-0.002;2023-04-12T14:38:04;8.90;92.30
46720;DHT22;32452;51.382;-0.002;2023-04-12T14:40:50;8.90;93.10
46720;DHT22;32452;51.382;-0.002;2023-04-12T14:43:35;8.90;93.50
46720;DHT22;32452;51.382;-0.002;2023-04-12T14:46:21;8.80;93.80
46720;DHT22;32452;51.382;-0.002;2023-04-12T14:49:07;8.80;94.40
46720;DHT22;32452;51.382;-0.002;2023-04-12T14:51:52;8.80;95.10
46720;DHT22;32452;51.382;-0.002;2023-04-12T14:54:38;8.80;95.50
46720;DHT22;32452;51.382;-0.002;2023-04-12T14:57:24;8.70;95.50
46720;DHT22;32452;51.382;-0.002;2023-04-12T15:00:10;8.70;95.70
46720;DHT22;32452;51.382;-0.002;2023-04-12T15:02:59;8.70;95.70
46720;DHT22;32452;51.382;-0.002;2023-04-12T15:05:45;8.70;95.90
46720;DHT22;32452;51.382;-0.002;2023-04-12T15:08:32;8.70;96.10
46720;DHT22;32452;51.382;-0.002;2023-04-12T15:11:19;8.70;96.10
46720;DHT22;32452;51.382;-0.002;2023-04-12T15:14:06;8.70;96.50
46720;DHT22;32452;51.382;-0.002;2023-04-12T15:16:53;8.70;96.50
46720;DHT22;32452;51.382;-0.002;2023-04-12T15:19:39;8.70;96.20
46720;DHT22;32452;51.382;-0.002;2023-04-12T15:22:25;8.70;96.30
46720;DHT22;32452;51.382;-0.002;2023-04-12T15:25:11;8.60;96.40
46720;DHT22;32452;51.382;-0.002;2023-04-12T15:27:57;8.60;96.50
46720;DHT22;32452;51.382;-0.002;2023-04-12T15:30:42;8.50;96.80
46720;DHT22;32452;51.382;-0.002;2023-04-12T15:33:29;8.40;97.10
46720;DHT22;32452;51.382;-0.002;2023-04-12T15:36:19;8.40;97.30
46720;DHT22;32452;51.382;-0.002;2023-04-12T15:39:06;8.30;97.40
46720;DHT22;32452;51.382;-0.002;2023-04-12T15:41:51;8.30;97.30
46720;DHT22;32452;51.382;-0.002;2023-04-12T15:44:37;8.20;96.30
46720;DHT22;32452;51.382;-0.002;2023-04-12T15:47:22;8.00;96.50
46720;DHT22;32452;51.382;-0.002;2023-04-12T15:50:08;7.90;96.90
46720;DHT22;32452;51.382;-0.002;2023-04-12T15:52:54;7.80;97.30
46720;DHT22;32452;51.382;-0.002;2023-04-12T15:55:44;7.70;97.60
46720;DHT22;32452;51.382;-0.002;2023-04-12T15:58:30;7.70;98.00
46720;DHT22;32452;51.382;-0.002;2023-04-12T16:01:19;7.70;98.40
46720;DHT22;32452;51.382;-0.002;2023-04-12T16:04:05;7.80;98.70
46720;DHT22;32452;51.382;-0.002;2023-04-12T16:06:51;7.80;98.50
46720;DHT22;32452;51.382;-0.002;2023-04-12T16:09:38;7.80;98.30
46720;DHT22;32452;51.382;-0.002;2023-04-12T16:12:23;7.80;98.30
46720;DHT22;32452;51.382;-0.002;2023-04-12T16:15:09;7.80;98.20
46720;DHT22;32452;51.382;-0.002;2023-04-12T16:17:56;7.80;98.20
46720;DHT22;32452;51.382;-0.002;2023-04-12T16:20:42;7.90;98.30
46720;DHT22;32452;51.382;-0.002;2023-04-12T16:23:28;7.90;98.20
46720;DHT22;32452;51.382;-0.002;2023-04-12T16:26:18;8.00;98.30
46720;DHT22;32452;51.382;-0.002;2023-04-12T16:29:07;8.00;98.40
46720;DHT22;32452;51.382;-0.002;2023-04-12T16:31:53;8.10;98.60
46720;DHT22;32452;51.382;-0.002;2023-04-12T16:34:43;8.30;98.70
46720;DHT22;32452;51.382;-0.002;2023-04-12T16:37:29;8.40;98.80
46720;DHT22;32452;51.382;-0.002;2023-04-12T16:40:14;8.50;98.90
46720;DHT22;32452;51.382;-0.002;2023-04-12T16:43:02;8.50;99.00
46720;DHT22;32452;51.382;-0.002;2023-04-12T16:45:47;8.50;99.30
46720;DHT22;32452;51.382;-0.002;2023-04-12T16:48:33;8.50;99.50
46720;DHT22;32452;51.382;-0.002;2023-04-12T16:51:28;8.60;99.90
46720;DHT22;32452;51.382;-0.002;2023-04-12T16:54:33;8.60;99.90
46720;DHT22;32452;51.382;-0.002;2023-04-12T16:57:19;8.60;99.90
46720;DHT22;32452;51.382;-0.002;2023-04-12T17:00:07;8.60;99.90
46720;DHT22;32452;51.382;-0.002;2023-04-12T17:03:06;8.60;99.90
46720;DHT22;32452;51.382;-0.002;2023-04-12T17:05:52;8.60;99.90
46720;DHT22;32452;51.382;-0.002;2023-04-12T17:08:41;8.50;99.90
46720;DHT22;32452;51.382;-0.002;2023-04-12T17:11:28;8.50;99.90
46720;DHT22;32452;51.382;-0.002;2023-04-12T17:14:14;8.40;99.90
46720;DHT22;32452;51.382;-0.002;2023-04-12T17:16:59;8.40;99.90
46720;DHT22;32452;51.382;-0.002;2023-04-12T17:19:47;8.40;99.90
46720;DHT22;32452;51.382;-0.002;2023-04-12T17:22:32;8.40;99.90
46720;DHT22;32452;51.382;-0.002;2023-04-12T17:25:19;8.40;99.90
46720;DHT22;32452;51.382;-0.002;2023-04-12T17:28:11;8.40;99.90
46720;DHT22;32452;51.382;-0.002;2023-04-12T17:30:58;8.40;99.90
46720;DHT22;32452;51.382;-0.002;2023-04-12T17:33:43;8.40;99.90
46720;DHT22;32452;51.382;-0.002;2023-04-12T17:36:29;8.40;99.90
46720;DHT22;32452;51.382;-0.002;2023-04-12T17:39:18;8.40;99.90
46720;DHT22;32452;51.382;-0.002;2023-04-12T17:42:04;8.40;99.90
46720;DHT22;32452;51.382;-0.002;2023-04-12T17:44:51;8.40;99.90
46720;DHT22;32452;51.382;-0.002;2023-04-12T17:47:37;8.40;99.90
46720;DHT22;32452;51.382;-0.002;2023-04-12T17:50:23;8.30;99.90
46720;DHT22;32452;51.382;-0.002;2023-04-12T17:53:09;8.30;99.90
46720;DHT22;32452;51.382;-0.002;2023-04-12T17:55:56;8.30;99.90